createdAt,value
2023-03-03T00:00:42.440Z,2.85
2023-03-03T00:03:21.777Z,2.80
2023-03-03T00:05:48.877Z,2.65
2023-03-03T00:08:15.806Z,2.76
2023-03-03T00:10:41.943Z,2.79
2023-03-03T00:13:20.245Z,2.56
2023-03-03T00:15:47.850Z,2.68
2023-03-03T00:18:34.485Z,2.58
2023-03-03T00:21:02.256Z,2.23
2023-03-03T00:23:35.978Z,2.08
2023-03-03T00:26:05.188Z,2.22
2023-03-03T00:28:43.692Z,2.12
2023-03-03T00:31:19.596Z,2.39
2023-03-03T00:33:53.917Z,2.46
2023-03-03T00:36:27.961Z,2.48
2023-03-03T00:38:57.270Z,2.56
2023-03-03T00:41:26.100Z,2.54
2023-03-03T00:43:53.762Z,2.56
2023-03-03T00:46:22.298Z,2.61
2023-03-03T00:48:50.304Z,2.70
2023-03-03T00:51:22.477Z,2.67
2023-03-03T00:53:50.124Z,2.66
2023-03-03T00:56:16.598Z,2.72
2023-03-03T00:58:47.393Z,2.66
2023-03-03T01:01:17.260Z,2.71
2023-03-03T01:03:47.849Z,2.34
2023-03-03T01:06:14.602Z,2.34
2023-03-03T01:08:41.041Z,2.17
2023-03-03T01:11:15.833Z,1.90
2023-03-03T01:13:46.448Z,1.98
2023-03-03T01:16:12.903Z,2.14
2023-03-03T01:18:41.130Z,2.28
2023-03-03T01:21:08.662Z,2.13
2023-03-03T01:23:35.387Z,2.04
2023-03-03T01:26:01.742Z,2.13
2023-03-03T01:28:28.163Z,2.29
2023-03-03T01:30:54.438Z,2.28
2023-03-03T01:33:20.951Z,2.19
2023-03-03T01:35:47.942Z,2.29
2023-03-03T01:38:15.243Z,2.22
2023-03-03T01:40:41.556Z,2.29
2023-03-03T01:43:08.028Z,2.37
2023-03-03T01:45:42.935Z,2.07
2023-03-03T01:48:36.860Z,2.15
2023-03-03T01:51:22.338Z,2.02
2023-03-03T01:53:52.228Z,1.89
2023-03-03T01:56:18.605Z,1.83
2023-03-03T01:58:52.394Z,1.70
2023-03-03T02:01:22.303Z,1.51
2023-03-03T02:03:49.844Z,1.40
2023-03-03T02:06:19.524Z,1.40
2023-03-03T02:08:53.378Z,1.35
2023-03-03T02:11:21.720Z,1.34
2023-03-03T02:13:48.353Z,1.25
2023-03-03T02:16:15.719Z,1.24
2023-03-03T02:18:42.405Z,1.49
2023-03-03T02:21:16.021Z,1.45
2023-03-03T02:23:59.479Z,1.36
2023-03-03T02:26:28.276Z,1.53
2023-03-03T02:29:00.248Z,1.70
2023-03-03T02:31:29.965Z,1.60
2023-03-03T02:33:57.044Z,1.56
2023-03-03T02:36:33.039Z,1.67
2023-03-03T02:39:19.609Z,1.76
2023-03-03T02:42:04.690Z,1.79
2023-03-03T02:44:37.968Z,1.56
2023-03-03T02:47:04.704Z,1.16
2023-03-03T02:49:33.658Z,1.05
2023-03-03T02:52:01.595Z,0.93
2023-03-03T02:54:30.244Z,0.84
2023-03-03T02:56:58.600Z,0.89
2023-03-03T02:59:26.716Z,0.87
2023-03-03T03:01:54.919Z,1.01
2023-03-03T03:04:26.442Z,0.88
2023-03-03T03:06:54.391Z,1.02
2023-03-03T03:09:24.187Z,1.25
2023-03-03T03:11:52.030Z,1.43
2023-03-03T03:14:22.662Z,1.22
2023-03-03T03:16:49.395Z,1.03
2023-03-03T03:19:15.866Z,1.24
2023-03-03T03:21:43.602Z,1.02
2023-03-03T03:24:10.738Z,1.02
2023-03-03T03:26:40.937Z,1.34
2023-03-03T03:29:07.791Z,1.43
2023-03-03T03:31:34.089Z,1.46
2023-03-03T03:34:02.859Z,1.11
2023-03-03T03:36:29.685Z,1.15
2023-03-03T03:38:56.542Z,1.10
2023-03-03T03:41:22.713Z,1.39
2023-03-03T03:43:49.290Z,1.53
2023-03-03T03:46:15.839Z,1.43
2023-03-03T03:48:43.192Z,1.26
2023-03-03T03:51:12.151Z,1.25
2023-03-03T03:53:39.692Z,0.87
2023-03-03T03:56:06.320Z,0.91
2023-03-03T03:58:33.334Z,1.09
2023-03-03T04:01:05.044Z,1.03
2023-03-03T04:03:33.889Z,1.09
2023-03-03T04:06:01.153Z,1.29
2023-03-03T04:08:27.864Z,1.31
2023-03-03T04:10:54.239Z,1.44
2023-03-03T04:13:21.323Z,1.21
2023-03-03T04:15:47.678Z,0.89
2023-03-03T04:18:14.319Z,0.92
2023-03-03T04:20:41.184Z,1.01
2023-03-03T04:23:08.013Z,0.82
2023-03-03T04:25:34.274Z,0.98
2023-03-03T04:28:03.951Z,1.16
2023-03-03T04:30:32.612Z,1.33
2023-03-03T04:32:59.353Z,1.45
2023-03-03T04:35:26.852Z,1.49
2023-03-03T04:37:53.662Z,1.44
2023-03-03T04:40:20.288Z,1.44
2023-03-03T04:42:49.627Z,1.44
2023-03-03T04:45:16.145Z,1.39
2023-03-03T04:47:44.612Z,1.15
2023-03-03T04:50:11.729Z,1.33
2023-03-03T04:52:38.426Z,1.39
2023-03-03T04:55:09.311Z,1.09
2023-03-03T04:57:37.454Z,1.10
2023-03-03T05:00:05.905Z,1.09
2023-03-03T05:02:32.598Z,0.95
2023-03-03T05:04:59.477Z,0.81
2023-03-03T05:07:26.035Z,1.17
2023-03-03T05:09:52.196Z,1.37
2023-03-03T05:12:19.443Z,1.44
2023-03-03T05:14:45.776Z,1.36
2023-03-03T05:17:12.506Z,1.34
2023-03-03T05:19:38.856Z,1.38
2023-03-03T05:22:05.029Z,1.39
2023-03-03T05:24:31.584Z,1.34
2023-03-03T05:26:57.964Z,1.40
2023-03-03T05:29:24.429Z,1.33
2023-03-03T05:31:50.609Z,1.25
2023-03-03T05:34:17.123Z,1.16
2023-03-03T05:36:43.487Z,1.28
2023-03-03T05:39:10.239Z,1.34
2023-03-03T05:41:36.723Z,1.39
2023-03-03T05:44:03.761Z,1.47
2023-03-03T05:46:30.179Z,1.56
2023-03-03T05:48:57.024Z,1.57
2023-03-03T05:51:23.342Z,1.64
2023-03-03T05:53:50.209Z,1.39
2023-03-03T05:56:17.071Z,1.36
2023-03-03T05:58:43.809Z,1.39
2023-03-03T06:01:11.090Z,1.35
2023-03-03T06:03:38.113Z,1.40
2023-03-03T06:06:04.635Z,1.41
2023-03-03T06:08:32.019Z,1.36
2023-03-03T06:10:58.548Z,1.17
2023-03-03T06:13:25.292Z,0.63
2023-03-03T06:15:51.640Z,0.63
2023-03-03T06:18:18.317Z,0.92
2023-03-03T06:20:44.566Z,1.03
2023-03-03T06:23:11.035Z,1.14
2023-03-03T06:25:38.591Z,1.24
2023-03-03T06:28:05.128Z,1.28
2023-03-03T06:30:31.617Z,1.28
2023-03-03T06:32:58.339Z,1.39
2023-03-03T06:35:24.529Z,1.45
2023-03-03T06:37:51.477Z,1.49
2023-03-03T06:40:17.801Z,1.49
2023-03-03T06:42:44.353Z,1.55
2023-03-03T06:45:11.022Z,1.62
2023-03-03T06:47:37.731Z,1.67
2023-03-03T06:50:04.392Z,1.63
2023-03-03T06:52:30.907Z,1.74
2023-03-03T06:55:00.142Z,1.63
2023-03-03T06:57:32.152Z,1.70
2023-03-03T07:00:19.867Z,1.74
2023-03-03T07:02:53.039Z,1.65
2023-03-03T07:05:19.583Z,1.63
2023-03-03T07:07:46.164Z,1.68
2023-03-03T07:10:23.087Z,1.72
2023-03-03T07:12:49.993Z,1.52
2023-03-03T07:15:35.186Z,1.40
2023-03-03T07:18:02.652Z,1.28
2023-03-03T07:20:36.081Z,1.47
2023-03-03T07:23:20.290Z,1.62
2023-03-03T07:25:47.824Z,1.62
2023-03-03T07:28:29.362Z,1.37
2023-03-03T07:30:57.448Z,1.21
2023-03-03T07:33:28.233Z,0.98
2023-03-03T07:35:57.176Z,0.96
2023-03-03T07:38:45.076Z,0.87
2023-03-03T07:41:20.284Z,1.00
2023-03-03T07:44:09.425Z,1.34
2023-03-03T07:46:44.430Z,1.43
2023-03-03T07:49:35.063Z,1.58
2023-03-03T07:52:22.774Z,1.73
2023-03-03T07:54:50.033Z,1.71
2023-03-03T07:57:50.927Z,1.77
2023-03-03T08:00:17.461Z,1.74
2023-03-03T08:02:51.467Z,1.75
2023-03-03T08:05:47.669Z,1.88
2023-03-03T08:08:17.255Z,1.89
2023-03-03T08:10:48.119Z,1.89
2023-03-03T08:13:21.691Z,1.90
2023-03-03T08:16:02.783Z,2.03
2023-03-03T08:18:35.466Z,1.94
2023-03-03T08:21:24.020Z,2.01
2023-03-03T08:23:52.808Z,2.06
2023-03-03T08:26:21.242Z,2.10
2023-03-03T08:28:47.796Z,2.10
2023-03-03T08:31:24.888Z,2.02
2023-03-03T08:33:58.371Z,2.01
2023-03-03T08:36:25.078Z,2.08
2023-03-03T08:38:52.152Z,2.08
2023-03-03T08:41:18.617Z,2.15
2023-03-03T08:43:44.978Z,2.19
2023-03-03T08:46:12.155Z,2.18
2023-03-03T08:48:40.494Z,2.01
2023-03-03T08:51:32.943Z,1.85
2023-03-03T08:53:59.993Z,1.80
2023-03-03T08:56:26.218Z,1.64
2023-03-03T08:59:02.219Z,1.87
2023-03-03T09:01:32.043Z,2.03
2023-03-03T09:03:59.225Z,2.27
2023-03-03T09:06:25.665Z,1.93
2023-03-03T09:08:54.298Z,1.99
2023-03-03T09:11:27.064Z,1.96
2023-03-03T09:14:27.401Z,2.10
2023-03-03T09:16:56.140Z,2.29
2023-03-03T09:19:22.768Z,2.34
2023-03-03T09:21:51.460Z,2.32
2023-03-03T09:24:35.497Z,2.35
2023-03-03T09:27:02.397Z,2.46
2023-03-03T09:29:30.952Z,2.55
2023-03-03T09:32:08.211Z,2.23
2023-03-03T09:34:42.412Z,2.40
2023-03-03T09:37:22.551Z,2.38
2023-03-03T09:39:55.070Z,2.35
2023-03-03T09:42:59.975Z,2.40
2023-03-03T09:45:45.524Z,2.50
2023-03-03T09:48:22.328Z,2.52
2023-03-03T09:50:54.975Z,2.65
2023-03-03T09:53:50.859Z,2.57
2023-03-03T09:56:33.331Z,2.58
2023-03-03T09:59:29.790Z,2.68
2023-03-03T10:02:33.768Z,2.68
2023-03-03T10:05:14.432Z,2.65
2023-03-03T10:07:59.833Z,2.74
2023-03-03T10:10:36.588Z,2.85
2023-03-03T10:13:36.775Z,2.84
2023-03-03T10:16:31.482Z,2.94
2023-03-03T10:19:01.780Z,2.93
2023-03-03T10:21:36.606Z,2.91
2023-03-03T10:24:27.980Z,3.01
2023-03-03T10:27:13.752Z,3.08
2023-03-03T10:29:40.682Z,2.95
2023-03-03T10:32:32.245Z,2.95
2023-03-03T10:35:31.567Z,3.06
2023-03-03T10:38:22.093Z,3.08
2023-03-03T10:41:28.082Z,2.98
2023-03-03T10:43:57.877Z,3.04
2023-03-03T10:46:54.519Z,3.04
2023-03-03T10:49:32.361Z,3.10
2023-03-03T10:52:02.078Z,3.13
2023-03-03T10:54:56.390Z,3.06
2023-03-03T10:57:55.905Z,3.00
2023-03-03T11:00:30.475Z,3.10
2023-03-03T11:03:31.002Z,3.15
2023-03-03T11:06:00.390Z,3.08
2023-03-03T11:08:34.586Z,3.16
2023-03-03T11:11:21.112Z,3.07
2023-03-03T11:14:10.344Z,3.14
2023-03-03T11:16:46.553Z,3.19
2023-03-03T11:19:35.064Z,3.23
2023-03-03T11:22:28.581Z,3.11
2023-03-03T11:25:11.172Z,3.12
2023-03-03T11:27:40.133Z,3.14
2023-03-03T11:30:06.556Z,3.13
2023-03-03T11:32:45.047Z,3.29
2023-03-03T11:35:23.845Z,3.18
2023-03-03T11:38:05.302Z,3.15
2023-03-03T11:40:45.180Z,3.28
2023-03-03T11:43:44.180Z,3.38
2023-03-03T11:46:31.497Z,3.45
2023-03-03T11:49:21.510Z,3.49
2023-03-03T11:52:06.740Z,3.44
2023-03-03T11:54:50.762Z,3.43
2023-03-03T11:57:36.225Z,3.49
2023-03-03T12:00:15.465Z,3.53
2023-03-03T12:03:03.915Z,3.49
2023-03-03T12:06:01.549Z,3.47
2023-03-03T12:09:08.571Z,3.57
2023-03-03T12:11:43.739Z,3.68
2023-03-03T12:14:55.582Z,3.73
2023-03-03T12:17:55.046Z,3.85
2023-03-03T12:21:11.396Z,3.76
2023-03-03T12:24:24.596Z,3.74
2023-03-03T12:27:34.946Z,3.86
2023-03-03T12:30:15.492Z,3.83
2023-03-03T12:33:02.835Z,3.88
2023-03-03T12:35:52.665Z,3.74
2023-03-03T12:38:41.119Z,3.88
2023-03-03T12:42:04.428Z,3.96
2023-03-03T12:45:14.937Z,3.89
2023-03-03T12:48:01.039Z,4.09
2023-03-03T12:51:39.116Z,4.10
2023-03-03T12:55:19.838Z,4.18
2023-03-03T12:58:24.938Z,4.33
2023-03-03T13:01:35.602Z,4.32
2023-03-03T13:04:51.325Z,4.19
2023-03-03T13:08:39.320Z,4.13
2023-03-03T13:15:10.637Z,4.26
2023-03-03T13:18:15.323Z,4.28
2023-03-03T13:20:52.306Z,4.27
2023-03-03T13:23:43.131Z,4.22
2023-03-03T13:26:39.004Z,4.22
2023-03-03T13:29:15.278Z,4.27
2023-03-03T13:36:17.871Z,4.29
2023-03-03T13:38:51.508Z,4.32
2023-03-03T13:41:28.941Z,4.41
2023-03-03T13:44:09.132Z,4.50
2023-03-03T13:46:40.047Z,4.65
2023-03-03T13:49:24.880Z,4.35
2023-03-03T13:52:01.895Z,4.41
2023-03-03T13:54:37.712Z,4.44
2023-03-03T13:57:39.326Z,4.53
2023-03-03T14:00:33.547Z,4.45
2023-03-03T14:03:28.582Z,4.42
2023-03-03T14:06:04.513Z,4.36
2023-03-03T14:08:58.640Z,4.35
2023-03-03T14:11:31.678Z,4.40
2023-03-03T14:13:58.008Z,4.45
2023-03-03T14:16:46.632Z,4.41
2023-03-03T14:19:19.769Z,4.34
2023-03-03T14:22:05.291Z,4.32
2023-03-03T14:24:31.801Z,4.37
2023-03-03T14:26:59.981Z,4.32
2023-03-03T14:29:39.375Z,4.38
2023-03-03T14:32:25.149Z,4.42
2023-03-03T14:35:00.830Z,4.28
2023-03-03T14:37:41.435Z,4.21
2023-03-03T14:40:19.849Z,4.33
2023-03-03T14:42:58.734Z,4.32
2023-03-03T14:45:41.639Z,4.24
2023-03-03T14:48:17.788Z,4.28
2023-03-03T14:51:00.232Z,4.18
2023-03-03T14:53:42.318Z,4.20
2023-03-03T14:56:33.617Z,4.12
2023-03-03T14:59:19.468Z,4.14
2023-03-03T15:01:46.724Z,4.10
2023-03-03T15:04:16.486Z,4.22
2023-03-03T15:06:50.844Z,4.19
2023-03-03T15:09:42.078Z,4.11
2023-03-03T15:12:39.954Z,4.12
2023-03-03T15:15:07.028Z,4.12
2023-03-03T15:17:54.184Z,4.04
2023-03-03T15:20:31.481Z,3.97
2023-03-03T15:23:23.787Z,3.99
2023-03-03T15:26:11.928Z,3.90
2023-03-03T15:29:09.044Z,3.87
2023-03-03T15:32:11.553Z,4.01
2023-03-03T15:34:59.198Z,3.85
2023-03-03T15:37:44.040Z,4.00
2023-03-03T15:40:37.807Z,3.91
2023-03-03T15:43:44.201Z,3.89
2023-03-03T15:46:30.917Z,4.01
2023-03-03T15:49:06.512Z,3.90
2023-03-03T15:52:21.809Z,4.01
2023-03-03T15:55:10.340Z,3.94
2023-03-03T15:57:55.602Z,3.80
2023-03-03T16:00:47.894Z,3.80
2023-03-03T16:03:25.873Z,3.70
2023-03-03T16:05:57.125Z,3.67
2023-03-03T16:08:51.718Z,3.65
2023-03-03T16:11:25.620Z,3.74
2023-03-03T16:14:15.156Z,3.74
2023-03-03T16:16:59.865Z,3.67
2023-03-03T16:19:37.077Z,3.56
2023-03-03T16:22:32.999Z,3.67
2023-03-03T16:25:18.193Z,3.64
2023-03-03T16:27:47.770Z,3.64
2023-03-03T16:30:36.027Z,3.60
2023-03-03T16:33:18.972Z,3.54
2023-03-03T16:35:51.304Z,3.51
2023-03-03T16:38:20.877Z,3.47
2023-03-03T16:40:57.807Z,3.50
2023-03-03T16:43:50.569Z,3.59
2023-03-03T16:46:41.156Z,3.59
2023-03-03T16:49:26.564Z,3.67
2023-03-03T16:52:16.317Z,3.58
2023-03-03T16:55:14.804Z,3.60
2023-03-03T16:58:19.287Z,3.42
2023-03-03T17:00:55.164Z,3.46
2023-03-03T17:03:59.130Z,3.39
2023-03-03T17:06:40.571Z,3.27
2023-03-03T17:09:06.710Z,3.35
2023-03-03T17:11:41.974Z,3.30
2023-03-03T17:14:14.311Z,3.32
2023-03-03T17:17:22.314Z,3.32
2023-03-03T17:20:07.944Z,3.28
2023-03-03T17:22:53.984Z,3.33
2023-03-03T17:25:41.272Z,3.35
2023-03-03T17:28:20.041Z,3.35
2023-03-03T17:31:11.434Z,3.41
2023-03-03T17:33:40.956Z,3.44
2023-03-03T17:36:28.938Z,3.39
2023-03-03T17:39:33.871Z,3.38
2023-03-03T17:42:06.590Z,3.33
2023-03-03T17:44:38.885Z,3.43
2023-03-03T17:47:11.686Z,3.33
2023-03-03T17:49:56.914Z,3.37
2023-03-03T17:52:38.353Z,3.37
2023-03-03T17:55:30.009Z,3.28
2023-03-03T17:58:18.156Z,3.36
2023-03-03T18:01:00.014Z,3.27
2023-03-03T18:03:44.973Z,3.32
2023-03-03T18:06:23.899Z,3.29
2023-03-03T18:09:28.566Z,3.36
2023-03-03T18:12:17.294Z,3.24
2023-03-03T18:14:43.445Z,3.22
2023-03-03T18:17:09.908Z,3.26
2023-03-03T18:20:07.500Z,3.31
2023-03-03T18:22:45.041Z,3.27
2023-03-03T18:25:14.700Z,3.22
2023-03-03T18:27:46.583Z,3.15
2023-03-03T18:30:32.514Z,3.17
2023-03-03T18:33:08.545Z,3.17
2023-03-03T18:35:39.078Z,3.01
2023-03-03T18:38:14.880Z,2.98
2023-03-03T18:41:02.987Z,3.01
2023-03-03T18:43:43.335Z,2.94
2023-03-03T18:46:22.111Z,2.93
2023-03-03T18:49:05.266Z,2.92
2023-03-03T18:52:12.462Z,3.02
2023-03-03T18:54:40.613Z,3.01
2023-03-03T18:57:16.815Z,2.92
2023-03-03T18:59:54.921Z,2.90
2023-03-03T19:02:27.663Z,2.80
2023-03-03T19:05:08.309Z,2.87
2023-03-03T19:07:41.114Z,2.83
2023-03-03T19:10:20.018Z,2.81
2023-03-03T19:12:46.995Z,2.93
2023-03-03T19:15:28.998Z,2.91
2023-03-03T19:18:18.005Z,2.77
2023-03-03T19:21:37.428Z,2.75
2023-03-03T19:24:43.804Z,2.82
2023-03-03T19:27:33.267Z,2.77
2023-03-03T19:33:52.907Z,2.62
2023-03-03T19:36:54.314Z,2.69
2023-03-03T19:39:21.774Z,2.60
2023-03-03T19:41:59.874Z,2.71
2023-03-03T19:44:40.527Z,2.63
2023-03-03T19:47:31.032Z,2.62
2023-03-03T19:50:23.148Z,2.60
2023-03-03T19:53:02.091Z,2.56
2023-03-03T19:56:12.684Z,2.55
2023-03-03T19:59:20.028Z,2.56
2023-03-03T20:02:18.533Z,2.58
2023-03-03T20:05:15.652Z,2.61
2023-03-03T20:07:58.049Z,2.60
2023-03-03T20:10:33.602Z,2.65
2023-03-03T20:13:39.915Z,2.77
2023-03-03T20:16:27.060Z,2.68
2023-03-03T20:19:08.794Z,2.72
2023-03-03T20:22:11.465Z,2.76
2023-03-03T20:25:41.540Z,2.73
2023-03-03T20:28:44.408Z,2.66
2023-03-03T20:31:42.191Z,2.43
2023-03-03T20:34:13.579Z,2.56
2023-03-03T20:36:55.379Z,2.75
2023-03-03T20:39:47.223Z,2.52
2023-03-03T20:42:38.050Z,2.55
2023-03-03T20:45:31.517Z,2.58
2023-03-03T20:48:26.072Z,2.61
2023-03-03T20:50:55.563Z,2.70
2023-03-03T20:53:34.276Z,2.67
2023-03-03T20:56:09.853Z,2.72
2023-03-03T20:58:54.926Z,2.70
2023-03-03T21:02:12.070Z,2.73
2023-03-03T21:04:41.794Z,2.62
2023-03-03T21:07:24.267Z,2.55
2023-03-03T21:10:10.357Z,2.43
2023-03-03T21:12:37.396Z,2.59
2023-03-03T21:15:19.391Z,2.58
2023-03-03T21:17:46.635Z,2.57
2023-03-03T21:20:31.226Z,2.59
2023-03-03T21:22:59.684Z,2.65
2023-03-03T21:25:53.009Z,2.60
2023-03-03T21:28:28.687Z,2.71
2023-03-03T21:31:00.641Z,2.70
2023-03-03T21:33:50.218Z,2.74
2023-03-03T21:36:36.783Z,2.77
2023-03-03T21:39:25.393Z,2.81
2023-03-03T21:41:55.950Z,2.79
2023-03-03T21:44:32.127Z,2.80
2023-03-03T21:46:59.039Z,2.85
2023-03-03T21:49:32.602Z,2.85
2023-03-03T21:52:01.905Z,2.80
2023-03-03T21:54:28.753Z,2.81
2023-03-03T21:56:57.652Z,2.83
2023-03-03T21:59:24.478Z,2.84
2023-03-03T22:01:53.611Z,2.76
2023-03-03T22:04:20.371Z,2.82
2023-03-03T22:06:50.743Z,2.84
2023-03-03T22:09:24.545Z,2.86
2023-03-03T22:11:50.866Z,2.86
2023-03-03T22:14:20.278Z,2.84
2023-03-03T22:16:52.456Z,2.74
2023-03-03T22:19:21.805Z,2.70
2023-03-03T22:21:49.543Z,2.67
2023-03-03T22:24:26.681Z,2.66
2023-03-03T22:27:13.710Z,2.69
2023-03-03T22:29:40.218Z,2.69
2023-03-03T22:32:14.299Z,2.59
2023-03-03T22:34:42.611Z,2.77
2023-03-03T22:37:09.527Z,2.74
2023-03-03T22:39:38.891Z,2.62
2023-03-03T22:42:08.033Z,2.60
2023-03-03T22:44:45.841Z,2.65
2023-03-03T22:47:15.059Z,2.65
2023-03-03T22:49:47.747Z,2.57
2023-03-03T22:52:27.365Z,2.67
2023-03-03T22:54:53.912Z,2.65
2023-03-03T22:57:23.839Z,2.79
2023-03-03T22:59:50.732Z,2.88
2023-03-03T23:02:20.106Z,2.75
2023-03-03T23:04:46.766Z,2.87
2023-03-03T23:07:19.023Z,2.77
2023-03-03T23:09:45.564Z,2.82
2023-03-03T23:12:13.157Z,2.79
2023-03-03T23:14:43.704Z,2.81
2023-03-03T23:17:10.159Z,2.74
2023-03-03T23:19:36.568Z,2.95
2023-03-03T23:22:02.765Z,3.03
2023-03-03T23:24:29.614Z,2.96
2023-03-03T23:26:57.651Z,2.96
2023-03-03T23:29:26.598Z,3.05
2023-03-03T23:31:52.874Z,3.05
2023-03-03T23:34:19.766Z,3.01
2023-03-03T23:36:48.392Z,3.02
2023-03-03T23:39:15.945Z,3.05
2023-03-03T23:41:42.202Z,3.09
2023-03-03T23:44:08.971Z,3.19
2023-03-03T23:46:39.112Z,3.21
2023-03-03T23:49:06.223Z,3.19
2023-03-03T23:51:35.987Z,3.20
2023-03-03T23:54:02.515Z,3.28
2023-03-03T23:56:31.048Z,3.24
2023-03-03T23:59:05.053Z,3.29
